sensor_id;sensor_type;location;lat;lon;timestamp;P1;durP1;ratioP1;P2;durP2;ratioP2
59512;SDS011;45330;51.634;5.562;2023-02-25T00:00:43;17.40;;;3.35;;
59512;SDS011;45330;51.634;5.562;2023-02-25T00:03:09;20.63;;;3.47;;
59512;SDS011;45330;51.634;5.562;2023-02-25T00:05:38;17.83;;;3.40;;
59512;SDS011;45330;51.634;5.562;2023-02-25T00:08:04;16.50;;;3.17;;
59512;SDS011;45330;51.634;5.562;2023-02-25T00:10:30;19.98;;;3.67;;
59512;SDS011;45330;51.634;5.562;2023-02-25T00:12:55;21.58;;;3.65;;
59512;SDS011;45330;51.634;5.562;2023-02-25T00:15:20;22.70;;;3.40;;
59512;SDS011;45330;51.634;5.562;2023-02-25T00:17:46;22.15;;;3.60;;
59512;SDS011;45330;51.634;5.562;2023-02-25T00:20:13;23.60;;;3.75;;
59512;SDS011;45330;51.634;5.562;2023-02-25T00:22:41;18.40;;;3.10;;
59512;SDS011;45330;51.634;5.562;2023-02-25T00:25:07;21.73;;;3.60;;
59512;SDS011;45330;51.634;5.562;2023-02-25T00:27:33;15.88;;;3.22;;
59512;SDS011;45330;51.634;5.562;2023-02-25T00:29:59;17.65;;;3.20;;
59512;SDS011;45330;51.634;5.562;2023-02-25T00:32:24;20.75;;;3.00;;
59512;SDS011;45330;51.634;5.562;2023-02-25T00:34:51;19.00;;;3.10;;
59512;SDS011;45330;51.634;5.562;2023-02-25T00:37:16;21.85;;;2.92;;
59512;SDS011;45330;51.634;5.562;2023-02-25T00:39:42;14.50;;;2.80;;
59512;SDS011;45330;51.634;5.562;2023-02-25T00:42:14;16.88;;;2.90;;
59512;SDS011;45330;51.634;5.562;2023-02-25T00:44:44;18.23;;;2.63;;
59512;SDS011;45330;51.634;5.562;2023-02-25T00:47:11;17.85;;;3.38;;
59512;SDS011;45330;51.634;5.562;2023-02-25T00:49:36;14.40;;;2.72;;
59512;SDS011;45330;51.634;5.562;2023-02-25T00:52:02;16.98;;;2.90;;
59512;SDS011;45330;51.634;5.562;2023-02-25T00:54:27;19.77;;;2.95;;
59512;SDS011;45330;51.634;5.562;2023-02-25T00:56:53;18.75;;;2.92;;
59512;SDS011;45330;51.634;5.562;2023-02-25T00:59:19;19.33;;;2.65;;
59512;SDS011;45330;51.634;5.562;2023-02-25T01:01:44;17.50;;;2.97;;
59512;SDS011;45330;51.634;5.562;2023-02-25T01:04:10;18.00;;;3.03;;
59512;SDS011;45330;51.634;5.562;2023-02-25T01:06:36;16.50;;;2.85;;
59512;SDS011;45330;51.634;5.562;2023-02-25T01:09:03;13.35;;;2.88;;
59512;SDS011;45330;51.634;5.562;2023-02-25T01:11:31;14.93;;;3.00;;
59512;SDS011;45330;51.634;5.562;2023-02-25T01:14:04;19.08;;;3.20;;
59512;SDS011;45330;51.634;5.562;2023-02-25T01:16:31;16.70;;;2.60;;
59512;SDS011;45330;51.634;5.562;2023-02-25T01:18:58;16.67;;;3.00;;
59512;SDS011;45330;51.634;5.562;2023-02-25T01:21:27;17.75;;;2.42;;
59512;SDS011;45330;51.634;5.562;2023-02-25T01:23:55;21.35;;;3.10;;
59512;SDS011;45330;51.634;5.562;2023-02-25T01:26:23;19.08;;;3.78;;
59512;SDS011;45330;51.634;5.562;2023-02-25T01:28:49;12.57;;;2.70;;
59512;SDS011;45330;51.634;5.562;2023-02-25T01:31:18;17.15;;;2.38;;
59512;SDS011;45330;51.634;5.562;2023-02-25T01:33:49;19.42;;;3.42;;
59512;SDS011;45330;51.634;5.562;2023-02-25T01:36:17;14.35;;;2.88;;
59512;SDS011;45330;51.634;5.562;2023-02-25T01:38:42;17.73;;;3.03;;
59512;SDS011;45330;51.634;5.562;2023-02-25T01:41:08;12.55;;;2.45;;
59512;SDS011;45330;51.634;5.562;2023-02-25T01:43:33;17.17;;;2.88;;
59512;SDS011;45330;51.634;5.562;2023-02-25T01:45:59;15.40;;;2.60;;
59512;SDS011;45330;51.634;5.562;2023-02-25T01:48:25;15.52;;;2.50;;
59512;SDS011;45330;51.634;5.562;2023-02-25T01:50:54;16.73;;;2.45;;
59512;SDS011;45330;51.634;5.562;2023-02-25T01:53:27;16.08;;;3.40;;
59512;SDS011;45330;51.634;5.562;2023-02-25T01:55:57;14.40;;;2.83;;
59512;SDS011;45330;51.634;5.562;2023-02-25T01:58:24;17.40;;;2.67;;
59512;SDS011;45330;51.634;5.562;2023-02-25T02:00:51;15.45;;;2.70;;
59512;SDS011;45330;51.634;5.562;2023-02-25T02:03:31;16.58;;;2.45;;
59512;SDS011;45330;51.634;5.562;2023-02-25T02:06:03;19.02;;;2.70;;
59512;SDS011;45330;51.634;5.562;2023-02-25T02:08:34;17.17;;;2.90;;
59512;SDS011;45330;51.634;5.562;2023-02-25T02:11:01;19.98;;;3.30;;
59512;SDS011;45330;51.634;5.562;2023-02-25T02:13:27;14.10;;;2.88;;
59512;SDS011;45330;51.634;5.562;2023-02-25T02:18:51;17.08;;;2.55;;
59512;SDS011;45330;51.634;5.562;2023-02-25T02:27:00;16.05;;;2.83;;
59512;SDS011;45330;51.634;5.562;2023-02-25T02:35:34;19.83;;;2.60;;
59512;SDS011;45330;51.634;5.562;2023-02-25T02:43:57;21.48;;;3.25;;
59512;SDS011;45330;51.634;5.562;2023-02-25T02:46:38;18.05;;;2.95;;
59512;SDS011;45330;51.634;5.562;2023-02-25T02:49:10;18.83;;;3.17;;
59512;SDS011;45330;51.634;5.562;2023-02-25T02:51:43;15.45;;;2.40;;
59512;SDS011;45330;51.634;5.562;2023-02-25T02:54:10;16.10;;;2.60;;
59512;SDS011;45330;51.634;5.562;2023-02-25T02:56:38;16.63;;;2.72;;
59512;SDS011;45330;51.634;5.562;2023-02-25T02:59:07;16.42;;;2.30;;
59512;SDS011;45330;51.634;5.562;2023-02-25T03:01:40;11.60;;;2.35;;
59512;SDS011;45330;51.634;5.562;2023-02-25T03:04:14;17.92;;;2.50;;
59512;SDS011;45330;51.634;5.562;2023-02-25T03:06:44;14.90;;;2.25;;
59512;SDS011;45330;51.634;5.562;2023-02-25T03:09:17;12.70;;;2.25;;
59512;SDS011;45330;51.634;5.562;2023-02-25T03:11:46;11.98;;;2.28;;
59512;SDS011;45330;51.634;5.562;2023-02-25T03:14:12;12.25;;;2.80;;
59512;SDS011;45330;51.634;5.562;2023-02-25T03:16:43;13.88;;;3.53;;
59512;SDS011;45330;51.634;5.562;2023-02-25T03:19:17;16.13;;;3.00;;
59512;SDS011;45330;51.634;5.562;2023-02-25T03:21:51;15.80;;;3.60;;
59512;SDS011;45330;51.634;5.562;2023-02-25T03:24:24;17.08;;;2.85;;
59512;SDS011;45330;51.634;5.562;2023-02-25T03:26:56;17.60;;;2.90;;
59512;SDS011;45330;51.634;5.562;2023-02-25T03:29:22;16.38;;;3.08;;
59512;SDS011;45330;51.634;5.562;2023-02-25T03:31:59;15.68;;;2.97;;
59512;SDS011;45330;51.634;5.562;2023-02-25T03:34:33;14.00;;;3.00;;
59512;SDS011;45330;51.634;5.562;2023-02-25T03:37:22;14.45;;;2.70;;
59512;SDS011;45330;51.634;5.562;2023-02-25T03:39:53;16.88;;;3.00;;
59512;SDS011;45330;51.634;5.562;2023-02-25T03:42:26;18.55;;;3.47;;
59512;SDS011;45330;51.634;5.562;2023-02-25T03:44:57;17.00;;;3.35;;
59512;SDS011;45330;51.634;5.562;2023-02-25T03:47:26;17.63;;;3.25;;
59512;SDS011;45330;51.634;5.562;2023-02-25T03:52:44;18.48;;;3.42;;
59512;SDS011;45330;51.634;5.562;2023-02-25T03:55:09;17.27;;;3.53;;
59512;SDS011;45330;51.634;5.562;2023-02-25T03:57:37;20.45;;;3.80;;
59512;SDS011;45330;51.634;5.562;2023-02-25T04:00:06;22.13;;;3.42;;
59512;SDS011;45330;51.634;5.562;2023-02-25T04:02:43;20.25;;;3.47;;
59512;SDS011;45330;51.634;5.562;2023-02-25T04:05:10;24.52;;;3.28;;
59512;SDS011;45330;51.634;5.562;2023-02-25T04:07:36;17.27;;;3.30;;
59512;SDS011;45330;51.634;5.562;2023-02-25T04:10:03;25.65;;;3.70;;
59512;SDS011;45330;51.634;5.562;2023-02-25T04:12:30;25.20;;;3.85;;
59512;SDS011;45330;51.634;5.562;2023-02-25T04:14:55;19.95;;;3.40;;
59512;SDS011;45330;51.634;5.562;2023-02-25T04:17:20;23.10;;;3.30;;
59512;SDS011;45330;51.634;5.562;2023-02-25T04:19:46;20.27;;;3.15;;
59512;SDS011;45330;51.634;5.562;2023-02-25T04:22:11;22.60;;;3.60;;
59512;SDS011;45330;51.634;5.562;2023-02-25T04:24:36;23.77;;;3.67;;
59512;SDS011;45330;51.634;5.562;2023-02-25T04:27:02;22.20;;;3.42;;
59512;SDS011;45330;51.634;5.562;2023-02-25T04:29:28;23.33;;;3.65;;
59512;SDS011;45330;51.634;5.562;2023-02-25T04:31:54;21.17;;;3.17;;
59512;SDS011;45330;51.634;5.562;2023-02-25T04:34:19;24.17;;;3.47;;
59512;SDS011;45330;51.634;5.562;2023-02-25T04:36:45;19.30;;;3.15;;
59512;SDS011;45330;51.634;5.562;2023-02-25T04:39:12;16.85;;;3.20;;
59512;SDS011;45330;51.634;5.562;2023-02-25T04:41:38;21.55;;;3.50;;
59512;SDS011;45330;51.634;5.562;2023-02-25T04:44:05;22.75;;;3.60;;
59512;SDS011;45330;51.634;5.562;2023-02-25T04:46:32;20.52;;;3.05;;
59512;SDS011;45330;51.634;5.562;2023-02-25T04:48:58;24.48;;;3.65;;
59512;SDS011;45330;51.634;5.562;2023-02-25T04:51:24;24.00;;;3.70;;
59512;SDS011;45330;51.634;5.562;2023-02-25T04:53:49;21.05;;;4.38;;
59512;SDS011;45330;51.634;5.562;2023-02-25T04:56:15;25.08;;;3.50;;
59512;SDS011;45330;51.634;5.562;2023-02-25T04:58:40;20.52;;;3.85;;
59512;SDS011;45330;51.634;5.562;2023-02-25T05:01:07;22.45;;;3.90;;
59512;SDS011;45330;51.634;5.562;2023-02-25T05:03:33;21.02;;;3.47;;
59512;SDS011;45330;51.634;5.562;2023-02-25T05:05:59;23.83;;;3.30;;
59512;SDS011;45330;51.634;5.562;2023-02-25T05:08:25;21.20;;;3.15;;
59512;SDS011;45330;51.634;5.562;2023-02-25T05:10:50;20.75;;;3.20;;
59512;SDS011;45330;51.634;5.562;2023-02-25T05:13:16;23.15;;;3.58;;
59512;SDS011;45330;51.634;5.562;2023-02-25T05:15:43;20.33;;;4.15;;
59512;SDS011;45330;51.634;5.562;2023-02-25T05:18:08;19.20;;;3.63;;
59512;SDS011;45330;51.634;5.562;2023-02-25T05:20:38;25.15;;;3.70;;
59512;SDS011;45330;51.634;5.562;2023-02-25T05:23:11;22.02;;;3.70;;
59512;SDS011;45330;51.634;5.562;2023-02-25T05:25:37;23.20;;;3.58;;
59512;SDS011;45330;51.634;5.562;2023-02-25T05:28:07;21.10;;;4.13;;
59512;SDS011;45330;51.634;5.562;2023-02-25T05:30:33;21.17;;;3.67;;
59512;SDS011;45330;51.634;5.562;2023-02-25T05:32:58;22.33;;;3.50;;
59512;SDS011;45330;51.634;5.562;2023-02-25T05:35:24;22.48;;;3.63;;
59512;SDS011;45330;51.634;5.562;2023-02-25T05:37:49;19.45;;;3.08;;
59512;SDS011;45330;51.634;5.562;2023-02-25T05:40:15;24.27;;;3.88;;
59512;SDS011;45330;51.634;5.562;2023-02-25T05:42:40;19.85;;;3.47;;
59512;SDS011;45330;51.634;5.562;2023-02-25T05:45:06;20.55;;;3.63;;
59512;SDS011;45330;51.634;5.562;2023-02-25T05:47:33;26.02;;;3.80;;
59512;SDS011;45330;51.634;5.562;2023-02-25T05:49:59;23.77;;;3.72;;
59512;SDS011;45330;51.634;5.562;2023-02-25T05:52:25;22.25;;;4.13;;
59512;SDS011;45330;51.634;5.562;2023-02-25T05:54:50;18.98;;;3.05;;
59512;SDS011;45330;51.634;5.562;2023-02-25T05:57:15;23.33;;;3.53;;
59512;SDS011;45330;51.634;5.562;2023-02-25T05:59:41;23.00;;;3.38;;
59512;SDS011;45330;51.634;5.562;2023-02-25T06:02:06;21.25;;;3.75;;
59512;SDS011;45330;51.634;5.562;2023-02-25T06:04:32;23.02;;;3.80;;
59512;SDS011;45330;51.634;5.562;2023-02-25T06:06:57;24.13;;;3.80;;
59512;SDS011;45330;51.634;5.562;2023-02-25T06:09:22;21.63;;;3.63;;
59512;SDS011;45330;51.634;5.562;2023-02-25T06:11:48;24.52;;;3.72;;
59512;SDS011;45330;51.634;5.562;2023-02-25T06:14:14;21.17;;;3.17;;
59512;SDS011;45330;51.634;5.562;2023-02-25T06:16:40;21.15;;;3.20;;
59512;SDS011;45330;51.634;5.562;2023-02-25T06:19:06;21.23;;;3.00;;
59512;SDS011;45330;51.634;5.562;2023-02-25T06:21:32;18.35;;;3.40;;
59512;SDS011;45330;51.634;5.562;2023-02-25T06:23:59;21.02;;;3.67;;
59512;SDS011;45330;51.634;5.562;2023-02-25T06:26:25;18.95;;;3.53;;
59512;SDS011;45330;51.634;5.562;2023-02-25T06:28:51;20.17;;;3.63;;
59512;SDS011;45330;51.634;5.562;2023-02-25T06:31:17;18.85;;;3.50;;
59512;SDS011;45330;51.634;5.562;2023-02-25T06:33:43;17.27;;;3.30;;
59512;SDS011;45330;51.634;5.562;2023-02-25T06:36:10;16.10;;;2.80;;
59512;SDS011;45330;51.634;5.562;2023-02-25T06:38:36;22.92;;;3.78;;
59512;SDS011;45330;51.634;5.562;2023-02-25T06:41:06;16.58;;;3.00;;
59512;SDS011;45330;51.634;5.562;2023-02-25T06:43:33;23.38;;;3.65;;
59512;SDS011;45330;51.634;5.562;2023-02-25T06:46:02;20.45;;;3.20;;
59512;SDS011;45330;51.634;5.562;2023-02-25T06:48:28;24.67;;;3.33;;
59512;SDS011;45330;51.634;5.562;2023-02-25T06:50:54;21.40;;;3.35;;
59512;SDS011;45330;51.634;5.562;2023-02-25T06:53:19;22.67;;;3.00;;
59512;SDS011;45330;51.634;5.562;2023-02-25T06:55:46;19.30;;;3.10;;
59512;SDS011;45330;51.634;5.562;2023-02-25T06:58:11;22.08;;;3.55;;
59512;SDS011;45330;51.634;5.562;2023-02-25T07:00:37;19.80;;;3.42;;
59512;SDS011;45330;51.634;5.562;2023-02-25T07:03:03;17.58;;;3.03;;
59512;SDS011;45330;51.634;5.562;2023-02-25T07:05:29;18.55;;;3.53;;
59512;SDS011;45330;51.634;5.562;2023-02-25T07:07:55;16.10;;;3.40;;
59512;SDS011;45330;51.634;5.562;2023-02-25T07:10:20;21.23;;;3.20;;
59512;SDS011;45330;51.634;5.562;2023-02-25T07:12:45;17.30;;;3.20;;
59512;SDS011;45330;51.634;5.562;2023-02-25T07:15:11;16.85;;;3.03;;
59512;SDS011;45330;51.634;5.562;2023-02-25T07:17:36;23.13;;;3.22;;
59512;SDS011;45330;51.634;5.562;2023-02-25T07:20:02;20.63;;;3.08;;
59512;SDS011;45330;51.634;5.562;2023-02-25T07:22:27;19.85;;;3.55;;
59512;SDS011;45330;51.634;5.562;2023-02-25T07:24:53;15.85;;;2.67;;
59512;SDS011;45330;51.634;5.562;2023-02-25T07:27:18;23.08;;;3.30;;
59512;SDS011;45330;51.634;5.562;2023-02-25T07:29:44;19.48;;;3.20;;
59512;SDS011;45330;51.634;5.562;2023-02-25T07:32:09;19.15;;;3.17;;
59512;SDS011;45330;51.634;5.562;2023-02-25T07:34:35;15.60;;;3.22;;
59512;SDS011;45330;51.634;5.562;2023-02-25T07:37:01;22.50;;;3.97;;
59512;SDS011;45330;51.634;5.562;2023-02-25T07:39:26;19.67;;;3.03;;
59512;SDS011;45330;51.634;5.562;2023-02-25T07:41:52;20.70;;;3.30;;
59512;SDS011;45330;51.634;5.562;2023-02-25T07:44:17;23.10;;;4.25;;
59512;SDS011;45330;51.634;5.562;2023-02-25T07:46:42;21.50;;;3.67;;
59512;SDS011;45330;51.634;5.562;2023-02-25T07:49:08;17.77;;;3.35;;
59512;SDS011;45330;51.634;5.562;2023-02-25T07:51:33;27.83;;;3.53;;
59512;SDS011;45330;51.634;5.562;2023-02-25T07:53:59;21.50;;;3.45;;
59512;SDS011;45330;51.634;5.562;2023-02-25T07:56:25;18.48;;;3.70;;
59512;SDS011;45330;51.634;5.562;2023-02-25T07:58:51;20.85;;;3.53;;
59512;SDS011;45330;51.634;5.562;2023-02-25T08:01:20;23.20;;;3.17;;
59512;SDS011;45330;51.634;5.562;2023-02-25T08:03:48;20.70;;;3.28;;
59512;SDS011;45330;51.634;5.562;2023-02-25T08:06:15;22.02;;;3.45;;
59512;SDS011;45330;51.634;5.562;2023-02-25T08:08:40;20.73;;;3.30;;
59512;SDS011;45330;51.634;5.562;2023-02-25T08:11:06;17.20;;;3.10;;
59512;SDS011;45330;51.634;5.562;2023-02-25T08:13:33;21.42;;;3.30;;
59512;SDS011;45330;51.634;5.562;2023-02-25T08:15:58;15.55;;;2.90;;
59512;SDS011;45330;51.634;5.562;2023-02-25T08:18:24;14.68;;;2.35;;
59512;SDS011;45330;51.634;5.562;2023-02-25T08:20:49;14.73;;;2.85;;
59512;SDS011;45330;51.634;5.562;2023-02-25T08:23:15;12.98;;;2.58;;
59512;SDS011;45330;51.634;5.562;2023-02-25T08:25:40;11.77;;;2.25;;
59512;SDS011;45330;51.634;5.562;2023-02-25T08:28:05;16.30;;;2.63;;
59512;SDS011;45330;51.634;5.562;2023-02-25T08:30:31;18.63;;;2.90;;
59512;SDS011;45330;51.634;5.562;2023-02-25T08:32:56;15.23;;;3.20;;
59512;SDS011;45330;51.634;5.562;2023-02-25T08:35:25;11.77;;;2.35;;
59512;SDS011;45330;51.634;5.562;2023-02-25T08:37:51;16.25;;;2.47;;
59512;SDS011;45330;51.634;5.562;2023-02-25T08:40:17;12.10;;;2.45;;
59512;SDS011;45330;51.634;5.562;2023-02-25T08:42:43;16.02;;;2.75;;
59512;SDS011;45330;51.634;5.562;2023-02-25T08:45:09;15.13;;;3.15;;
59512;SDS011;45330;51.634;5.562;2023-02-25T08:47:34;22.35;;;3.58;;
59512;SDS011;45330;51.634;5.562;2023-02-25T08:50:00;18.35;;;2.97;;
59512;SDS011;45330;51.634;5.562;2023-02-25T08:52:26;21.73;;;3.10;;
59512;SDS011;45330;51.634;5.562;2023-02-25T08:54:57;21.77;;;3.45;;
59512;SDS011;45330;51.634;5.562;2023-02-25T08:57:26;16.75;;;2.92;;
59512;SDS011;45330;51.634;5.562;2023-02-25T08:59:52;20.42;;;3.83;;
59512;SDS011;45330;51.634;5.562;2023-02-25T09:02:17;21.58;;;3.75;;
59512;SDS011;45330;51.634;5.562;2023-02-25T09:04:42;21.13;;;3.08;;
59512;SDS011;45330;51.634;5.562;2023-02-25T09:07:08;15.45;;;3.30;;
59512;SDS011;45330;51.634;5.562;2023-02-25T09:09:33;21.27;;;3.90;;
59512;SDS011;45330;51.634;5.562;2023-02-25T09:11:59;23.67;;;3.20;;
59512;SDS011;45330;51.634;5.562;2023-02-25T09:14:25;22.92;;;5.32;;
59512;SDS011;45330;51.634;5.562;2023-02-25T09:16:51;20.17;;;3.33;;
59512;SDS011;45330;51.634;5.562;2023-02-25T09:19:16;20.77;;;3.40;;
59512;SDS011;45330;51.634;5.562;2023-02-25T09:21:43;18.38;;;3.40;;
59512;SDS011;45330;51.634;5.562;2023-02-25T09:24:10;19.90;;;3.42;;
59512;SDS011;45330;51.634;5.562;2023-02-25T09:26:35;20.73;;;3.45;;
59512;SDS011;45330;51.634;5.562;2023-02-25T09:29:02;18.38;;;4.03;;
59512;SDS011;45330;51.634;5.562;2023-02-25T09:31:29;21.60;;;3.42;;
59512;SDS011;45330;51.634;5.562;2023-02-25T09:33:54;24.45;;;3.28;;
59512;SDS011;45330;51.634;5.562;2023-02-25T09:36:20;20.42;;;3.03;;
59512;SDS011;45330;51.634;5.562;2023-02-25T09:38:47;19.90;;;3.33;;
59512;SDS011;45330;51.634;5.562;2023-02-25T09:41:34;19.05;;;3.40;;
59512;SDS011;45330;51.634;5.562;2023-02-25T09:44:04;21.83;;;3.60;;
59512;SDS011;45330;51.634;5.562;2023-02-25T09:49:45;19.00;;;2.92;;
59512;SDS011;45330;51.634;5.562;2023-02-25T09:52:30;19.95;;;3.88;;
59512;SDS011;45330;51.634;5.562;2023-02-25T09:55:02;16.33;;;2.58;;
59512;SDS011;45330;51.634;5.562;2023-02-25T09:57:44;18.85;;;2.92;;
59512;SDS011;45330;51.634;5.562;2023-02-25T10:00:20;18.58;;;3.33;;
59512;SDS011;45330;51.634;5.562;2023-02-25T10:02:54;13.85;;;2.78;;
59512;SDS011;45330;51.634;5.562;2023-02-25T10:11:09;12.90;;;2.33;;
59512;SDS011;45330;51.634;5.562;2023-02-25T10:13:47;12.07;;;2.72;;
59512;SDS011;45330;51.634;5.562;2023-02-25T10:16:25;12.32;;;2.20;;
59512;SDS011;45330;51.634;5.562;2023-02-25T10:21:49;12.05;;;2.28;;
59512;SDS011;45330;51.634;5.562;2023-02-25T10:27:15;15.35;;;2.40;;
59512;SDS011;45330;51.634;5.562;2023-02-25T10:29:58;9.15;;;2.17;;
59512;SDS011;45330;51.634;5.562;2023-02-25T10:32:32;11.05;;;2.00;;
59512;SDS011;45330;51.634;5.562;2023-02-25T10:35:00;9.95;;;2.00;;
59512;SDS011;45330;51.634;5.562;2023-02-25T10:37:37;12.35;;;2.10;;
59512;SDS011;45330;51.634;5.562;2023-02-25T10:40:03;12.55;;;1.98;;
59512;SDS011;45330;51.634;5.562;2023-02-25T10:42:35;8.60;;;1.83;;
59512;SDS011;45330;51.634;5.562;2023-02-25T10:45:09;12.00;;;2.00;;
59512;SDS011;45330;51.634;5.562;2023-02-25T10:47:40;13.27;;;2.08;;
59512;SDS011;45330;51.634;5.562;2023-02-25T10:55:26;12.43;;;1.90;;
59512;SDS011;45330;51.634;5.562;2023-02-25T10:57:54;7.72;;;1.70;;
59512;SDS011;45330;51.634;5.562;2023-02-25T11:00:23;10.15;;;1.80;;
59512;SDS011;45330;51.634;5.562;2023-02-25T11:02:55;11.30;;;1.92;;
59512;SDS011;45330;51.634;5.562;2023-02-25T11:05:29;8.53;;;1.80;;
59512;SDS011;45330;51.634;5.562;2023-02-25T11:08:01;10.55;;;1.83;;
59512;SDS011;45330;51.634;5.562;2023-02-25T11:10:31;9.20;;;1.90;;
59512;SDS011;45330;51.634;5.562;2023-02-25T11:12:56;9.18;;;2.97;;
59512;SDS011;45330;51.634;5.562;2023-02-25T11:15:26;11.70;;;2.08;;
59512;SDS011;45330;51.634;5.562;2023-02-25T11:17:58;5.47;;;1.30;;
59512;SDS011;45330;51.634;5.562;2023-02-25T11:20:29;11.55;;;1.92;;
59512;SDS011;45330;51.634;5.562;2023-02-25T11:22:56;11.13;;;2.22;;
59512;SDS011;45330;51.634;5.562;2023-02-25T11:25:28;7.57;;;1.63;;
59512;SDS011;45330;51.634;5.562;2023-02-25T11:28:00;6.63;;;2.10;;
59512;SDS011;45330;51.634;5.562;2023-02-25T11:30:36;9.57;;;1.90;;
59512;SDS011;45330;51.634;5.562;2023-02-25T11:35:57;7.28;;;1.75;;
59512;SDS011;45330;51.634;5.562;2023-02-25T11:38:37;11.85;;;2.17;;
59512;SDS011;45330;51.634;5.562;2023-02-25T11:41:20;8.70;;;2.22;;
59512;SDS011;45330;51.634;5.562;2023-02-25T11:43:47;10.73;;;1.48;;
59512;SDS011;45330;51.634;5.562;2023-02-25T11:46:20;11.88;;;2.13;;
59512;SDS011;45330;51.634;5.562;2023-02-25T11:48:56;11.30;;;2.13;;
59512;SDS011;45330;51.634;5.562;2023-02-25T11:51:24;9.90;;;1.80;;
59512;SDS011;45330;51.634;5.562;2023-02-25T11:56:45;12.23;;;1.90;;
59512;SDS011;45330;51.634;5.562;2023-02-25T12:05:12;11.48;;;2.22;;
59512;SDS011;45330;51.634;5.562;2023-02-25T12:10:34;13.05;;;2.17;;
59512;SDS011;45330;51.634;5.562;2023-02-25T12:32:50;10.25;;;1.67;;
59512;SDS011;45330;51.634;5.562;2023-02-25T12:38:32;9.30;;;1.73;;
59512;SDS011;45330;51.634;5.562;2023-02-25T12:41:27;10.02;;;2.03;;
59512;SDS011;45330;51.634;5.562;2023-02-25T13:02:51;10.32;;;2.20;;
59512;SDS011;45330;51.634;5.562;2023-02-25T13:10:55;8.93;;;2.22;;
59512;SDS011;45330;51.634;5.562;2023-02-25T13:19:10;11.93;;;2.47;;
59512;SDS011;45330;51.634;5.562;2023-02-25T13:24:24;9.48;;;2.13;;
59512;SDS011;45330;51.634;5.562;2023-02-25T13:30:04;11.95;;;2.00;;
59512;SDS011;45330;51.634;5.562;2023-02-25T13:35:21;10.13;;;2.40;;
59512;SDS011;45330;51.634;5.562;2023-02-25T13:38:02;11.45;;;1.98;;
59512;SDS011;45330;51.634;5.562;2023-02-25T13:41:05;15.05;;;2.45;;
59512;SDS011;45330;51.634;5.562;2023-02-25T13:46:45;7.25;;;1.80;;
59512;SDS011;45330;51.634;5.562;2023-02-25T14:00:07;10.70;;;2.53;;
59512;SDS011;45330;51.634;5.562;2023-02-25T14:08:31;10.82;;;1.95;;
59512;SDS011;45330;51.634;5.562;2023-02-25T14:25:36;6.93;;;1.90;;
59512;SDS011;45330;51.634;5.562;2023-02-25T14:31:09;14.40;;;2.80;;
59512;SDS011;45330;51.634;5.562;2023-02-25T14:39:36;10.05;;;2.17;;
59512;SDS011;45330;51.634;5.562;2023-02-25T14:42:11;13.27;;;2.53;;
59512;SDS011;45330;51.634;5.562;2023-02-25T14:47:28;11.45;;;2.35;;
59512;SDS011;45330;51.634;5.562;2023-02-25T15:00:57;7.40;;;1.70;;
59512;SDS011;45330;51.634;5.562;2023-02-25T15:03:59;8.85;;;2.17;;
59512;SDS011;45330;51.634;5.562;2023-02-25T15:23:08;7.55;;;1.75;;
59512;SDS011;45330;51.634;5.562;2023-02-25T15:25:50;11.43;;;2.30;;
59512;SDS011;45330;51.634;5.562;2023-02-25T15:28:36;7.22;;;1.75;;
59512;SDS011;45330;51.634;5.562;2023-02-25T15:31:04;10.27;;;2.17;;
59512;SDS011;45330;51.634;5.562;2023-02-25T15:33:37;7.63;;;2.05;;
59512;SDS011;45330;51.634;5.562;2023-02-25T15:43:50;8.57;;;2.05;;
59512;SDS011;45330;51.634;5.562;2023-02-25T15:56:58;15.32;;;2.00;;
59512;SDS011;45330;51.634;5.562;2023-02-25T16:04:56;7.00;;;1.80;;
59512;SDS011;45330;51.634;5.562;2023-02-25T16:07:37;6.65;;;1.65;;
59512;SDS011;45330;51.634;5.562;2023-02-25T16:15:06;13.73;;;2.15;;
59512;SDS011;45330;51.634;5.562;2023-02-25T16:17:37;7.90;;;1.80;;
59512;SDS011;45330;51.634;5.562;2023-02-25T16:22:45;8.07;;;1.60;;
59512;SDS011;45330;51.634;5.562;2023-02-25T16:25:13;8.20;;;1.70;;
59512;SDS011;45330;51.634;5.562;2023-02-25T16:27:46;5.25;;;1.48;;
59512;SDS011;45330;51.634;5.562;2023-02-25T16:30:36;6.82;;;1.63;;
59512;SDS011;45330;51.634;5.562;2023-02-25T16:39:15;9.05;;;1.90;;
59512;SDS011;45330;51.634;5.562;2023-02-25T16:41:21;7.70;;;1.70;;
59512;SDS011;45330;51.634;5.562;2023-02-25T16:43:47;12.65;;;2.70;;
59512;SDS011;45330;51.634;5.562;2023-02-25T16:46:18;10.70;;;2.10;;
59512;SDS011;45330;51.634;5.562;2023-02-25T16:51:33;8.40;;;2.00;;
59512;SDS011;45330;51.634;5.562;2023-02-25T16:54:10;10.65;;;2.53;;
59512;SDS011;45330;51.634;5.562;2023-02-25T16:57:00;6.00;;;2.03;;
59512;SDS011;45330;51.634;5.562;2023-02-25T16:59:30;9.77;;;1.90;;
59512;SDS011;45330;51.634;5.562;2023-02-25T17:01:58;5.70;;;1.90;;
59512;SDS011;45330;51.634;5.562;2023-02-25T17:04:28;6.50;;;1.80;;
59512;SDS011;45330;51.634;5.562;2023-02-25T17:09:33;8.35;;;2.28;;
59512;SDS011;45330;51.634;5.562;2023-02-25T17:11:59;8.45;;;1.90;;
59512;SDS011;45330;51.634;5.562;2023-02-25T17:14:26;12.55;;;2.38;;
59512;SDS011;45330;51.634;5.562;2023-02-25T17:16:54;11.88;;;2.40;;
59512;SDS011;45330;51.634;5.562;2023-02-25T17:19:21;9.68;;;2.58;;
59512;SDS011;45330;51.634;5.562;2023-02-25T17:21:54;9.75;;;2.30;;
59512;SDS011;45330;51.634;5.562;2023-02-25T17:24:24;10.60;;;2.50;;
59512;SDS011;45330;51.634;5.562;2023-02-25T17:26:53;6.17;;;1.93;;
59512;SDS011;45330;51.634;5.562;2023-02-25T17:29:19;9.32;;;2.00;;
59512;SDS011;45330;51.634;5.562;2023-02-25T17:34:14;10.73;;;2.33;;
59512;SDS011;45330;51.634;5.562;2023-02-25T17:36:42;5.75;;;1.83;;
59512;SDS011;45330;51.634;5.562;2023-02-25T17:39:13;10.18;;;2.50;;
59512;SDS011;45330;51.634;5.562;2023-02-25T17:41:42;11.70;;;2.50;;
59512;SDS011;45330;51.634;5.562;2023-02-25T17:44:11;11.65;;;2.30;;
59512;SDS011;45330;51.634;5.562;2023-02-25T17:47:03;10.70;;;2.35;;
59512;SDS011;45330;51.634;5.562;2023-02-25T17:49:32;9.20;;;2.00;;
59512;SDS011;45330;51.634;5.562;2023-02-25T17:52:05;10.52;;;2.08;;
59512;SDS011;45330;51.634;5.562;2023-02-25T17:54:42;9.88;;;2.17;;
59512;SDS011;45330;51.634;5.562;2023-02-25T17:57:18;10.53;;;2.07;;
59512;SDS011;45330;51.634;5.562;2023-02-25T17:59:50;12.45;;;2.10;;
59512;SDS011;45330;51.634;5.562;2023-02-25T18:02:36;9.95;;;2.20;;
59512;SDS011;45330;51.634;5.562;2023-02-25T18:05:22;16.38;;;2.40;;
59512;SDS011;45330;51.634;5.562;2023-02-25T18:12:57;12.80;;;2.50;;
59512;SDS011;45330;51.634;5.562;2023-02-25T18:15:24;10.40;;;2.50;;
59512;SDS011;45330;51.634;5.562;2023-02-25T18:18:04;9.45;;;2.08;;
59512;SDS011;45330;51.634;5.562;2023-02-25T18:20:35;14.20;;;3.05;;
59512;SDS011;45330;51.634;5.562;2023-02-25T18:28:20;10.15;;;2.50;;
59512;SDS011;45330;51.634;5.562;2023-02-25T18:30:47;13.10;;;2.70;;
59512;SDS011;45330;51.634;5.562;2023-02-25T18:33:13;11.15;;;2.20;;
59512;SDS011;45330;51.634;5.562;2023-02-25T18:35:40;11.15;;;2.40;;
59512;SDS011;45330;51.634;5.562;2023-02-25T18:38:17;16.88;;;3.13;;
59512;SDS011;45330;51.634;5.562;2023-02-25T18:40:45;10.30;;;2.35;;
59512;SDS011;45330;51.634;5.562;2023-02-25T18:43:19;12.98;;;2.60;;
59512;SDS011;45330;51.634;5.562;2023-02-25T18:45:47;12.48;;;2.60;;
59512;SDS011;45330;51.634;5.562;2023-02-25T18:48:12;10.45;;;2.50;;
59512;SDS011;45330;51.634;5.562;2023-02-25T18:50:39;10.95;;;2.50;;
59512;SDS011;45330;51.634;5.562;2023-02-25T18:53:10;11.70;;;2.30;;
59512;SDS011;45330;51.634;5.562;2023-02-25T18:55:39;13.82;;;2.35;;